Jay Michael — WDD2051 — position and weather

sailwx.info

Track history (hours):
 
Tides and Currents Weather Stations Pressure Air Temp Water Temp Dewpoint Dewpoint Depression Visibility Wind Speed Wind Dir Waves Ship Positions

Jay Michael

Owner: Sterling Equipment Inc., Quincy, MA. More information available from US FCC via Universal Licensing System and Coast Guard Vessel Documentation Center.

Last reported at 2017-Jun-17 21:48 UTC. Time now 2017-Jun-23 22:11 UTC.
Position N 42°55' W 070°32'.

Length 21 m; draft 2.5 m.

Type: Tug. MMSI: 367110280.

Date/timePositionNaut miles runAvg speedWind from/ knotsBaromVisibWave heightAir tempDewpointWater temp
2017-Jun-17 21:48N 42°55' W 070°32'2 4.9
2017-Jun-17 21:27N 42°54' W 070°34'2 4.9
2017-Jun-17 21:00N 42°52' W 070°35'2 4.8
2017-Jun-17 20:30N 42°50' W 070°36'2 4.8
2017-Jun-17 20:00N 42°47' W 070°36'2 4.9
2017-Jun-17 19:30N 42°45' W 070°36'3 5.1
2017-Jun-17 19:00N 42°43' W 070°34'3 5.2
2017-Jun-17 18:30N 42°40' W 070°33'2 4.8
2017-Jun-17 18:00N 42°38' W 070°33'2 4.7
2017-Jun-17 17:31N 42°36' W 070°35'2 4.7
2017-Jun-17 17:00N 42°34' W 070°37'2 4.8
2017-Jun-17 16:30N 42°32' W 070°38'2 4.9
2017-Jun-17 16:00N 42°30' W 070°40'3 5.1
2017-Jun-17 15:30N 42°28' W 070°42'3 5.0
2017-Jun-17 15:00N 42°26' W 070°44'2 4.8
2017-Jun-17 14:31N 42°24' W 070°46'5 4.7
2017-Jun-17 13:30N 42°20' W 070°50'3 5.3
2017-Jun-17 13:00N 42°19' W 070°53'2 4.4
2017-Jun-17 12:30N 42°18' W 070°55'2 3.2
2017-Jun-17 11:59N 42°16' W 070°56'2 4.4
2017-Jun-17 11:30N 42°15' W 070°58'0 0.2
2017-Jun-17 10:51N 42°15' W 070°58'0 0.2
2017-Jun-17 10:28N 42°15' W 070°58'0 0.0
2017-Jun-17 07:13N 42°15' W 070°58'0 0.0
2017-Jun-17 07:00N 42°15' W 070°58'0 0.0
2017-Jun-17 04:56N 42°15' W 070°58'0 0.0
2017-Jun-17 04:08N 42°15' W 070°58'0 0.0
2017-Jun-17 03:59N 42°15' W 070°58'0 0.0
2017-Jun-17 03:29N 42°15' W 070°58'0 0.0
2017-Jun-17 02:56N 42°15' W 070°58'0 0.0
2017-Jun-17 02:30N 42°15' W 070°58'0 0.0
2017-Jun-16 21:52N 42°15' W 070°58'0 0.0
2017-Jun-16 21:26N 42°15' W 070°58'0 0.0
2017-Jun-16 20:54N 42°15' W 070°58'0 0.0
2017-Jun-16 20:18N 42°15' W 070°58'0 0.0
2017-Jun-16 16:46N 42°15' W 070°58'0 0.0
2017-Jun-16 16:13N 42°15' W 070°58'0 0.0
2017-Jun-16 15:28N 42°15' W 070°58'0 0.0
2017-Jun-16 15:00N 42°15' W 070°58'0 0.0
2017-Jun-16 14:24N 42°15' W 070°58'0 0.0
2017-Jun-16 13:30N 42°15' W 070°58'0 0.0
2017-Jun-16 12:53N 42°15' W 070°58'0 0.0
2017-Jun-16 12:21N 42°15' W 070°58'0 0.0
2017-Jun-16 12:00N 42°15' W 070°58'0 0.0
2017-Jun-16 11:30N 42°15' W 070°58'0 0.0
2017-Jun-16 10:58N 42°15' W 070°58'0 0.0
2017-Jun-16 10:26N 42°15' W 070°58'0 0.0
2017-Jun-15 13:44N 42°15' W 070°58'0 0.0
2017-Jun-15 13:30N 42°15' W 070°58'0 0.0
2017-Jun-15 12:58N 42°15' W 070°58'0 0.0
2017-Jun-15 12:30N 42°15' W 070°58'0 0.0
2017-Jun-15 12:00N 42°15' W 070°58'0 0.0
2017-Jun-15 11:30N 42°15' W 070°58'0 0.0
2017-Jun-15 10:55N 42°15' W 070°58'0 0.0
2017-Jun-15 10:30N 42°15' W 070°58'  
2017-Jun-10 15:07N 42°15' W 070°58'0 0.0
2017-Jun-10 14:45N 42°15' W 070°58'0 0.0
2017-Jun-10 13:57N 42°15' W 070°58'0 0.0
2017-Jun-10 13:29N 42°15' W 070°58'0 0.0
2017-Jun-10 13:00N 42°15' W 070°58'0 0.0
2017-Jun-10 12:30N 42°15' W 070°58'0 0.0
2017-Jun-10 12:00N 42°15' W 070°58'0 0.0
2017-Jun-10 11:30N 42°15' W 070°58'0 0.0
2017-Jun-10 11:00N 42°15' W 070°58'0 0.0
2017-Jun-10 10:30N 42°15' W 070°58'0 0.0
2017-Jun-10 10:00N 42°15' W 070°58'0 0.0
2017-Jun-10 09:30N 42°15' W 070°58'0 0.0
2017-Jun-10 06:38N 42°15' W 070°58'0 0.0
2017-Jun-10 06:30N 42°15' W 070°58'0 0.0
2017-Jun-10 05:54N 42°15' W 070°58'0 0.0
2017-Jun-10 05:30N 42°15' W 070°58'0 0.0
2017-Jun-10 05:00N 42°15' W 070°58'0 0.0
2017-Jun-10 04:29N 42°15' W 070°58'0 0.0
2017-Jun-10 03:58N 42°15' W 070°58'0 0.0
2017-Jun-10 03:30N 42°15' W 070°58'0 0.0
2017-Jun-10 03:00N 42°15' W 070°58'0 0.0
2017-Jun-10 02:30N 42°15' W 070°58'0 0.0
2017-Jun-10 02:01N 42°15' W 070°58'0 0.0
2017-Jun-10 01:30N 42°15' W 070°58'0 0.0
2017-Jun-10 00:42N 42°15' W 070°58'0 0.0
2017-Jun-10 00:25N 42°15' W 070°58'0 0.0
2017-Jun-09 23:58N 42°15' W 070°58'0 0.0
2017-Jun-09 23:30N 42°15' W 070°58'0 0.0
2017-Jun-09 22:58N 42°15' W 070°58'0 0.0
2017-Jun-09 22:30N 42°15' W 070°58'0 0.0
2017-Jun-09 21:58N 42°15' W 070°58'0 0.0
2017-Jun-09 21:24N 42°15' W 070°58'  
Track history (hours):
 
Tides and Currents Weather Stations Pressure Air Temp Water Temp Dewpoint Dewpoint Depression Visibility Wind Speed Wind Dir Waves Ship Positions

Jay Michael

Owner: Sterling Equipment Inc., Quincy, MA. More information available from US FCC via Universal Licensing System and Coast Guard Vessel Documentation Center.

Last reported at 2017-Jun-17 21:48 UTC. Time now 2017-Jun-23 22:11 UTC.
Position N 42°55' W 070°32'.

Length 21 m; draft 2.5 m.

Type: Tug. MMSI: 367110280.

Date/timePositionNaut miles runAvg speedWind from/ knotsBaromVisibWave heightAir tempDewpointWater temp
2017-Jun-17 21:48N 42°55' W 070°32'2 4.9
2017-Jun-17 21:27N 42°54' W 070°34'2 4.9
2017-Jun-17 21:00N 42°52' W 070°35'2 4.8
2017-Jun-17 20:30N 42°50' W 070°36'2 4.8
2017-Jun-17 20:00N 42°47' W 070°36'2 4.9
2017-Jun-17 19:30N 42°45' W 070°36'3 5.1
2017-Jun-17 19:00N 42°43' W 070°34'3 5.2
2017-Jun-17 18:30N 42°40' W 070°33'2 4.8
2017-Jun-17 18:00N 42°38' W 070°33'2 4.7
2017-Jun-17 17:31N 42°36' W 070°35'2 4.7
2017-Jun-17 17:00N 42°34' W 070°37'2 4.8
2017-Jun-17 16:30N 42°32' W 070°38'2 4.9
2017-Jun-17 16:00N 42°30' W 070°40'3 5.1
2017-Jun-17 15:30N 42°28' W 070°42'3 5.0
2017-Jun-17 15:00N 42°26' W 070°44'2 4.8
2017-Jun-17 14:31N 42°24' W 070°46'5 4.7
2017-Jun-17 13:30N 42°20' W 070°50'3 5.3
2017-Jun-17 13:00N 42°19' W 070°53'2 4.4
2017-Jun-17 12:30N 42°18' W 070°55'2 3.2
2017-Jun-17 11:59N 42°16' W 070°56'2 4.4
2017-Jun-17 11:30N 42°15' W 070°58'0 0.2
2017-Jun-17 10:51N 42°15' W 070°58'0 0.2
2017-Jun-17 10:28N 42°15' W 070°58'0 0.0
2017-Jun-17 07:13N 42°15' W 070°58'0 0.0
2017-Jun-17 07:00N 42°15' W 070°58'0 0.0
2017-Jun-17 04:56N 42°15' W 070°58'0 0.0
2017-Jun-17 04:08N 42°15' W 070°58'0 0.0
2017-Jun-17 03:59N 42°15' W 070°58'0 0.0
2017-Jun-17 03:29N 42°15' W 070°58'0 0.0
2017-Jun-17 02:56N 42°15' W 070°58'0 0.0
2017-Jun-17 02:30N 42°15' W 070°58'0 0.0
2017-Jun-16 21:52N 42°15' W 070°58'0 0.0
2017-Jun-16 21:26N 42°15' W 070°58'0 0.0
2017-Jun-16 20:54N 42°15' W 070°58'0 0.0
2017-Jun-16 20:18N 42°15' W 070°58'0 0.0
2017-Jun-16 16:46N 42°15' W 070°58'0 0.0
2017-Jun-16 16:13N 42°15' W 070°58'0 0.0
2017-Jun-16 15:28N 42°15' W 070°58'0 0.0
2017-Jun-16 15:00N 42°15' W 070°58'0 0.0
2017-Jun-16 14:24N 42°15' W 070°58'0 0.0
2017-Jun-16 13:30N 42°15' W 070°58'0 0.0
2017-Jun-16 12:53N 42°15' W 070°58'0 0.0
2017-Jun-16 12:21N 42°15' W 070°58'0 0.0
2017-Jun-16 12:00N 42°15' W 070°58'0 0.0
2017-Jun-16 11:30N 42°15' W 070°58'0 0.0
2017-Jun-16 10:58N 42°15' W 070°58'0 0.0
2017-Jun-16 10:26N 42°15' W 070°58'0 0.0
2017-Jun-15 13:44N 42°15' W 070°58'0 0.0
2017-Jun-15 13:30N 42°15' W 070°58'0 0.0
2017-Jun-15 12:58N 42°15' W 070°58'0 0.0
2017-Jun-15 12:30N 42°15' W 070°58'0 0.0
2017-Jun-15 12:00N 42°15' W 070°58'0 0.0
2017-Jun-15 11:30N 42°15' W 070°58'0 0.0
2017-Jun-15 10:55N 42°15' W 070°58'0 0.0
2017-Jun-15 10:30N 42°15' W 070°58'  
2017-Jun-10 15:07N 42°15' W 070°58'0 0.0
2017-Jun-10 14:45N 42°15' W 070°58'0 0.0
2017-Jun-10 13:57N 42°15' W 070°58'0 0.0
2017-Jun-10 13:29N 42°15' W 070°58'0 0.0
2017-Jun-10 13:00N 42°15' W 070°58'0 0.0
2017-Jun-10 12:30N 42°15' W 070°58'0 0.0
2017-Jun-10 12:00N 42°15' W 070°58'0 0.0
2017-Jun-10 11:30N 42°15' W 070°58'0 0.0
2017-Jun-10 11:00N 42°15' W 070°58'0 0.0
2017-Jun-10 10:30N 42°15' W 070°58'0 0.0
2017-Jun-10 10:00N 42°15' W 070°58'0 0.0
2017-Jun-10 09:30N 42°15' W 070°58'0 0.0
2017-Jun-10 06:38N 42°15' W 070°58'0 0.0
2017-Jun-10 06:30N 42°15' W 070°58'0 0.0
2017-Jun-10 05:54N 42°15' W 070°58'0 0.0
2017-Jun-10 05:30N 42°15' W 070°58'0 0.0
2017-Jun-10 05:00N 42°15' W 070°58'0 0.0
2017-Jun-10 04:29N 42°15' W 070°58'0 0.0
2017-Jun-10 03:58N 42°15' W 070°58'0 0.0
2017-Jun-10 03:30N 42°15' W 070°58'0 0.0
2017-Jun-10 03:00N 42°15' W 070°58'0 0.0
2017-Jun-10 02:30N 42°15' W 070°58'0 0.0
2017-Jun-10 02:01N 42°15' W 070°58'0 0.0
2017-Jun-10 01:30N 42°15' W 070°58'0 0.0
2017-Jun-10 00:42N 42°15' W 070°58'0 0.0
2017-Jun-10 00:25N 42°15' W 070°58'0 0.0
2017-Jun-09 23:58N 42°15' W 070°58'0 0.0
2017-Jun-09 23:30N 42°15' W 070°58'0 0.0
2017-Jun-09 22:58N 42°15' W 070°58'0 0.0
2017-Jun-09 22:30N 42°15' W 070°58'0 0.0
2017-Jun-09 21:58N 42°15' W 070°58'0 0.0
2017-Jun-09 21:24N 42°15' W 070°58'  

Dump ship's entire track history